sensor_id;sensor_type;location;lat;lon;timestamp;temperature;humidity
71837;DHT22;59686;51.716;7.016;2022-11-09T00:00:36;14.50;82.40
71837;DHT22;59686;51.716;7.016;2022-11-09T00:03:02;14.50;82.30
71837;DHT22;59686;51.716;7.016;2022-11-09T00:05:28;14.50;82.40
71837;DHT22;59686;51.716;7.016;2022-11-09T00:07:53;14.50;82.40
71837;DHT22;59686;51.716;7.016;2022-11-09T00:10:20;14.50;82.30
71837;DHT22;59686;51.716;7.016;2022-11-09T00:12:46;14.50;82.40
71837;DHT22;59686;51.716;7.016;2022-11-09T00:15:11;14.50;82.40
71837;DHT22;59686;51.716;7.016;2022-11-09T00:17:37;14.50;82.40
71837;DHT22;59686;51.716;7.016;2022-11-09T00:20:03;14.60;82.40
71837;DHT22;59686;51.716;7.016;2022-11-09T00:22:30;14.50;82.30
71837;DHT22;59686;51.716;7.016;2022-11-09T00:24:56;14.50;82.40
71837;DHT22;59686;51.716;7.016;2022-11-09T00:27:22;14.50;82.40
71837;DHT22;59686;51.716;7.016;2022-11-09T00:29:47;14.50;82.50
71837;DHT22;59686;51.716;7.016;2022-11-09T00:32:13;14.60;82.60
71837;DHT22;59686;51.716;7.016;2022-11-09T00:34:39;14.60;82.60
71837;DHT22;59686;51.716;7.016;2022-11-09T00:37:04;14.50;82.60
71837;DHT22;59686;51.716;7.016;2022-11-09T00:39:30;14.50;82.60
71837;DHT22;59686;51.716;7.016;2022-11-09T00:41:59;14.50;82.60
71837;DHT22;59686;51.716;7.016;2022-11-09T00:44:27;14.50;82.60
71837;DHT22;59686;51.716;7.016;2022-11-09T00:46:56;14.50;82.60
71837;DHT22;59686;51.716;7.016;2022-11-09T00:49:21;14.40;82.60
71837;DHT22;59686;51.716;7.016;2022-11-09T00:51:47;14.50;82.70
71837;DHT22;59686;51.716;7.016;2022-11-09T00:54:13;14.60;82.70
71837;DHT22;59686;51.716;7.016;2022-11-09T00:56:39;14.50;82.70
71837;DHT22;59686;51.716;7.016;2022-11-09T00:59:05;14.60;82.80
71837;DHT22;59686;51.716;7.016;2022-11-09T01:01:30;14.50;82.70
71837;DHT22;59686;51.716;7.016;2022-11-09T01:03:56;14.50;82.70
71837;DHT22;59686;51.716;7.016;2022-11-09T01:06:24;14.60;82.80
71837;DHT22;59686;51.716;7.016;2022-11-09T01:08:50;14.50;82.80
71837;DHT22;59686;51.716;7.016;2022-11-09T01:11:18;14.50;82.80
71837;DHT22;59686;51.716;7.016;2022-11-09T01:13:44;14.50;82.80
71837;DHT22;59686;51.716;7.016;2022-11-09T01:16:14;14.50;82.90
71837;DHT22;59686;51.716;7.016;2022-11-09T01:18:41;14.50;82.80
71837;DHT22;59686;51.716;7.016;2022-11-09T01:21:19;14.50;82.90
71837;DHT22;59686;51.716;7.016;2022-11-09T01:23:45;14.50;82.90
71837;DHT22;59686;51.716;7.016;2022-11-09T01:26:12;14.50;82.80
71837;DHT22;59686;51.716;7.016;2022-11-09T01:28:39;14.50;82.90
71837;DHT22;59686;51.716;7.016;2022-11-09T01:31:07;14.50;82.90
71837;DHT22;59686;51.716;7.016;2022-11-09T01:33:35;14.50;82.90
71837;DHT22;59686;51.716;7.016;2022-11-09T01:36:05;14.50;82.90
71837;DHT22;59686;51.716;7.016;2022-11-09T01:38:32;14.50;83.00
71837;DHT22;59686;51.716;7.016;2022-11-09T01:40:58;14.50;82.90
71837;DHT22;59686;51.716;7.016;2022-11-09T01:43:24;14.50;82.90
71837;DHT22;59686;51.716;7.016;2022-11-09T01:51:17;14.50;82.90
71837;DHT22;59686;51.716;7.016;2022-11-09T01:53:47;14.50;82.90
71837;DHT22;59686;51.716;7.016;2022-11-09T01:56:14;14.50;82.90
71837;DHT22;59686;51.716;7.016;2022-11-09T01:59:02;14.50;82.80
71837;DHT22;59686;51.716;7.016;2022-11-09T02:01:31;14.50;82.80
71837;DHT22;59686;51.716;7.016;2022-11-09T02:04:42;14.40;82.80
71837;DHT22;59686;51.716;7.016;2022-11-09T02:07:01;14.50;82.90
71837;DHT22;59686;51.716;7.016;2022-11-09T02:12:11;14.50;82.90
71837;DHT22;59686;51.716;7.016;2022-11-09T02:14:38;14.50;82.90
71837;DHT22;59686;51.716;7.016;2022-11-09T02:17:05;14.40;83.00
71837;DHT22;59686;51.716;7.016;2022-11-09T02:19:32;14.50;82.90
71837;DHT22;59686;51.716;7.016;2022-11-09T02:22:01;14.50;82.90
71837;DHT22;59686;51.716;7.016;2022-11-09T02:24:27;14.50;82.90
71837;DHT22;59686;51.716;7.016;2022-11-09T02:26:53;14.50;82.90
71837;DHT22;59686;51.716;7.016;2022-11-09T02:29:22;14.50;82.90
71837;DHT22;59686;51.716;7.016;2022-11-09T02:32:04;14.50;82.90
71837;DHT22;59686;51.716;7.016;2022-11-09T02:34:31;14.50;82.80
71837;DHT22;59686;51.716;7.016;2022-11-09T02:36:57;14.40;82.90
71837;DHT22;59686;51.716;7.016;2022-11-09T02:39:24;14.50;82.90
71837;DHT22;59686;51.716;7.016;2022-11-09T02:42:11;14.40;82.80
71837;DHT22;59686;51.716;7.016;2022-11-09T02:44:44;14.40;82.80
71837;DHT22;59686;51.716;7.016;2022-11-09T02:47:12;14.50;82.80
71837;DHT22;59686;51.716;7.016;2022-11-09T02:49:38;14.50;83.20
71837;DHT22;59686;51.716;7.016;2022-11-09T02:52:03;14.50;82.80
71837;DHT22;59686;51.716;7.016;2022-11-09T02:54:29;14.50;83.50
71837;DHT22;59686;51.716;7.016;2022-11-09T02:56:55;14.40;82.70
71837;DHT22;59686;51.716;7.016;2022-11-09T02:59:20;14.40;82.70
71837;DHT22;59686;51.716;7.016;2022-11-09T03:01:46;14.50;82.70
71837;DHT22;59686;51.716;7.016;2022-11-09T03:04:12;14.50;82.60
71837;DHT22;59686;51.716;7.016;2022-11-09T03:06:37;14.50;82.60
71837;DHT22;59686;51.716;7.016;2022-11-09T03:09:05;14.50;82.60
71837;DHT22;59686;51.716;7.016;2022-11-09T03:11:32;14.50;82.60
71837;DHT22;59686;51.716;7.016;2022-11-09T03:14:01;14.50;82.60
71837;DHT22;59686;51.716;7.016;2022-11-09T03:16:28;14.50;82.50
71837;DHT22;59686;51.716;7.016;2022-11-09T03:18:54;14.50;83.30
71837;DHT22;59686;51.716;7.016;2022-11-09T03:21:19;14.50;82.50
71837;DHT22;59686;51.716;7.016;2022-11-09T03:23:47;14.50;82.30
71837;DHT22;59686;51.716;7.016;2022-11-09T03:26:13;14.40;82.30
71837;DHT22;59686;51.716;7.016;2022-11-09T03:28:41;14.60;82.50
71837;DHT22;59686;51.716;7.016;2022-11-09T03:31:07;14.50;82.30
71837;DHT22;59686;51.716;7.016;2022-11-09T03:33:34;14.40;82.20
71837;DHT22;59686;51.716;7.016;2022-11-09T03:35:59;14.50;82.30
71837;DHT22;59686;51.716;7.016;2022-11-09T03:38:27;14.50;82.20
71837;DHT22;59686;51.716;7.016;2022-11-09T03:40:53;14.50;82.20
71837;DHT22;59686;51.716;7.016;2022-11-09T03:43:21;14.50;82.10
71837;DHT22;59686;51.716;7.016;2022-11-09T03:45:46;14.50;82.00
71837;DHT22;59686;51.716;7.016;2022-11-09T03:48:12;14.60;82.10
71837;DHT22;59686;51.716;7.016;2022-11-09T03:50:38;14.50;81.90
71837;DHT22;59686;51.716;7.016;2022-11-09T03:53:06;14.50;81.90
71837;DHT22;59686;51.716;7.016;2022-11-09T03:55:32;14.50;81.90
71837;DHT22;59686;51.716;7.016;2022-11-09T03:57:58;14.50;81.90
71837;DHT22;59686;51.716;7.016;2022-11-09T04:00:27;14.50;81.80
71837;DHT22;59686;51.716;7.016;2022-11-09T04:02:55;14.50;81.80
71837;DHT22;59686;51.716;7.016;2022-11-09T04:05:22;14.50;81.70
71837;DHT22;59686;51.716;7.016;2022-11-09T04:07:50;14.50;81.80
71837;DHT22;59686;51.716;7.016;2022-11-09T04:10:17;14.50;81.80
71837;DHT22;59686;51.716;7.016;2022-11-09T04:12:43;14.50;81.70
71837;DHT22;59686;51.716;7.016;2022-11-09T04:15:09;14.50;81.80
71837;DHT22;59686;51.716;7.016;2022-11-09T04:17:35;14.50;81.70
71837;DHT22;59686;51.716;7.016;2022-11-09T04:20:01;14.50;81.70
71837;DHT22;59686;51.716;7.016;2022-11-09T04:22:26;14.50;81.60
71837;DHT22;59686;51.716;7.016;2022-11-09T04:24:52;14.50;81.60
71837;DHT22;59686;51.716;7.016;2022-11-09T04:27:18;14.50;82.40
71837;DHT22;59686;51.716;7.016;2022-11-09T04:29:43;14.40;81.50
71837;DHT22;59686;51.716;7.016;2022-11-09T04:32:09;14.50;81.70
71837;DHT22;59686;51.716;7.016;2022-11-09T04:34:35;14.40;81.60
71837;DHT22;59686;51.716;7.016;2022-11-09T04:37:00;14.40;81.70
71837;DHT22;59686;51.716;7.016;2022-11-09T04:39:26;14.50;81.70
71837;DHT22;59686;51.716;7.016;2022-11-09T04:41:52;14.40;81.60
71837;DHT22;59686;51.716;7.016;2022-11-09T04:44:17;14.40;81.60
71837;DHT22;59686;51.716;7.016;2022-11-09T04:46:43;14.50;81.60
71837;DHT22;59686;51.716;7.016;2022-11-09T04:49:09;14.50;81.70
71837;DHT22;59686;51.716;7.016;2022-11-09T04:51:34;14.40;81.70
71837;DHT22;59686;51.716;7.016;2022-11-09T04:54:00;14.50;81.80
71837;DHT22;59686;51.716;7.016;2022-11-09T04:56:25;14.40;81.70
71837;DHT22;59686;51.716;7.016;2022-11-09T04:58:51;14.50;81.80
71837;DHT22;59686;51.716;7.016;2022-11-09T05:01:17;14.50;81.80
71837;DHT22;59686;51.716;7.016;2022-11-09T05:03:42;14.50;81.90
71837;DHT22;59686;51.716;7.016;2022-11-09T05:06:09;14.50;81.90
71837;DHT22;59686;51.716;7.016;2022-11-09T05:08:54;14.50;83.00
71837;DHT22;59686;51.716;7.016;2022-11-09T05:11:20;14.40;82.50
71837;DHT22;59686;51.716;7.016;2022-11-09T05:13:46;14.50;82.50
71837;DHT22;59686;51.716;7.016;2022-11-09T05:16:12;14.50;82.70
71837;DHT22;59686;51.716;7.016;2022-11-09T05:18:38;14.50;82.80
71837;DHT22;59686;51.716;7.016;2022-11-09T05:21:03;14.50;83.10
71837;DHT22;59686;51.716;7.016;2022-11-09T05:23:44;14.50;83.10
71837;DHT22;59686;51.716;7.016;2022-11-09T05:26:36;14.50;83.00
71837;DHT22;59686;51.716;7.016;2022-11-09T05:29:05;14.50;83.10
71837;DHT22;59686;51.716;7.016;2022-11-09T05:31:32;14.40;83.10
71837;DHT22;59686;51.716;7.016;2022-11-09T05:33:58;14.40;83.10
71837;DHT22;59686;51.716;7.016;2022-11-09T05:36:24;14.40;83.10
71837;DHT22;59686;51.716;7.016;2022-11-09T05:39:00;14.40;83.10
71837;DHT22;59686;51.716;7.016;2022-11-09T05:41:26;14.50;83.20
71837;DHT22;59686;51.716;7.016;2022-11-09T05:43:52;14.40;83.10
71837;DHT22;59686;51.716;7.016;2022-11-09T05:46:18;14.40;83.10
71837;DHT22;59686;51.716;7.016;2022-11-09T05:48:44;14.40;83.20
71837;DHT22;59686;51.716;7.016;2022-11-09T05:51:12;14.50;83.20
71837;DHT22;59686;51.716;7.016;2022-11-09T05:53:38;14.40;83.20
71837;DHT22;59686;51.716;7.016;2022-11-09T05:56:09;14.50;83.20
71837;DHT22;59686;51.716;7.016;2022-11-09T05:58:36;14.50;83.20
71837;DHT22;59686;51.716;7.016;2022-11-09T06:01:08;14.50;83.20
71837;DHT22;59686;51.716;7.016;2022-11-09T06:03:34;14.50;83.10
71837;DHT22;59686;51.716;7.016;2022-11-09T06:06:04;14.40;83.10
71837;DHT22;59686;51.716;7.016;2022-11-09T06:08:42;14.40;83.10
71837;DHT22;59686;51.716;7.016;2022-11-09T06:11:10;14.40;83.10
71837;DHT22;59686;51.716;7.016;2022-11-09T06:13:37;14.40;83.00
71837;DHT22;59686;51.716;7.016;2022-11-09T06:16:04;14.40;82.90
71837;DHT22;59686;51.716;7.016;2022-11-09T06:18:31;14.40;83.70
71837;DHT22;59686;51.716;7.016;2022-11-09T06:20:59;14.40;82.90
71837;DHT22;59686;51.716;7.016;2022-11-09T06:23:25;14.40;82.90
71837;DHT22;59686;51.716;7.016;2022-11-09T06:25:52;14.40;82.90
71837;DHT22;59686;51.716;7.016;2022-11-09T06:28:20;14.40;82.90
71837;DHT22;59686;51.716;7.016;2022-11-09T06:30:46;14.30;82.90
71837;DHT22;59686;51.716;7.016;2022-11-09T06:33:15;14.40;83.00
71837;DHT22;59686;51.716;7.016;2022-11-09T06:35:41;14.40;83.00
71837;DHT22;59686;51.716;7.016;2022-11-09T06:38:08;14.40;83.00
71837;DHT22;59686;51.716;7.016;2022-11-09T06:40:34;14.40;83.00
71837;DHT22;59686;51.716;7.016;2022-11-09T06:43:02;14.30;83.00
71837;DHT22;59686;51.716;7.016;2022-11-09T06:45:29;14.40;83.00
71837;DHT22;59686;51.716;7.016;2022-11-09T06:47:59;14.50;83.20
71837;DHT22;59686;51.716;7.016;2022-11-09T06:50:26;14.40;83.00
71837;DHT22;59686;51.716;7.016;2022-11-09T06:53:04;14.40;83.10
71837;DHT22;59686;51.716;7.016;2022-11-09T06:55:31;14.40;83.10
71837;DHT22;59686;51.716;7.016;2022-11-09T06:57:58;14.40;83.10
71837;DHT22;59686;51.716;7.016;2022-11-09T07:00:24;14.40;83.10
71837;DHT22;59686;51.716;7.016;2022-11-09T07:02:51;14.40;83.00
71837;DHT22;59686;51.716;7.016;2022-11-09T07:05:17;14.40;83.10
71837;DHT22;59686;51.716;7.016;2022-11-09T07:07:43;14.40;83.10
71837;DHT22;59686;51.716;7.016;2022-11-09T07:10:09;14.30;83.00
71837;DHT22;59686;51.716;7.016;2022-11-09T07:12:34;14.40;83.20
71837;DHT22;59686;51.716;7.016;2022-11-09T07:15:01;14.40;83.20
71837;DHT22;59686;51.716;7.016;2022-11-09T07:17:31;14.40;83.20
71837;DHT22;59686;51.716;7.016;2022-11-09T07:19:57;14.40;83.20
71837;DHT22;59686;51.716;7.016;2022-11-09T07:22:22;14.40;83.20
71837;DHT22;59686;51.716;7.016;2022-11-09T07:24:48;14.40;83.20
71837;DHT22;59686;51.716;7.016;2022-11-09T07:27:14;14.50;83.30
71837;DHT22;59686;51.716;7.016;2022-11-09T07:29:39;14.30;83.20
71837;DHT22;59686;51.716;7.016;2022-11-09T07:32:05;14.30;83.20
71837;DHT22;59686;51.716;7.016;2022-11-09T07:34:31;14.30;83.30
71837;DHT22;59686;51.716;7.016;2022-11-09T07:36:56;14.40;83.30
71837;DHT22;59686;51.716;7.016;2022-11-09T07:39:22;14.30;83.30
71837;DHT22;59686;51.716;7.016;2022-11-09T07:41:48;14.40;83.30
71837;DHT22;59686;51.716;7.016;2022-11-09T07:44:14;14.30;83.30
71837;DHT22;59686;51.716;7.016;2022-11-09T07:46:46;14.30;83.30
71837;DHT22;59686;51.716;7.016;2022-11-09T07:49:13;14.40;83.30
71837;DHT22;59686;51.716;7.016;2022-11-09T07:51:40;14.30;83.30
71837;DHT22;59686;51.716;7.016;2022-11-09T07:54:06;14.30;83.30
71837;DHT22;59686;51.716;7.016;2022-11-09T07:56:32;14.30;83.20
71837;DHT22;59686;51.716;7.016;2022-11-09T07:58:57;14.30;83.20
71837;DHT22;59686;51.716;7.016;2022-11-09T08:01:26;14.30;83.30
71837;DHT22;59686;51.716;7.016;2022-11-09T08:03:52;14.30;83.30
71837;DHT22;59686;51.716;7.016;2022-11-09T08:06:18;14.40;83.30
71837;DHT22;59686;51.716;7.016;2022-11-09T08:08:44;14.40;83.30
71837;DHT22;59686;51.716;7.016;2022-11-09T08:11:10;14.30;83.30
71837;DHT22;59686;51.716;7.016;2022-11-09T08:13:36;14.30;83.30
71837;DHT22;59686;51.716;7.016;2022-11-09T08:16:02;14.30;83.30
71837;DHT22;59686;51.716;7.016;2022-11-09T08:18:28;14.30;83.40
71837;DHT22;59686;51.716;7.016;2022-11-09T08:20:54;14.30;83.30
71837;DHT22;59686;51.716;7.016;2022-11-09T08:23:20;14.30;83.20
71837;DHT22;59686;51.716;7.016;2022-11-09T08:25:49;14.40;83.20
71837;DHT22;59686;51.716;7.016;2022-11-09T08:28:15;14.40;83.20
71837;DHT22;59686;51.716;7.016;2022-11-09T08:30:41;14.40;83.20
71837;DHT22;59686;51.716;7.016;2022-11-09T08:33:07;14.40;83.20
71837;DHT22;59686;51.716;7.016;2022-11-09T08:35:33;14.30;83.20
71837;DHT22;59686;51.716;7.016;2022-11-09T08:38:01;14.30;83.20
71837;DHT22;59686;51.716;7.016;2022-11-09T08:40:27;14.30;83.20
71837;DHT22;59686;51.716;7.016;2022-11-09T08:42:53;14.40;83.30
71837;DHT22;59686;51.716;7.016;2022-11-09T08:45:20;14.40;83.10
71837;DHT22;59686;51.716;7.016;2022-11-09T08:47:46;14.40;83.10
71837;DHT22;59686;51.716;7.016;2022-11-09T08:50:13;14.40;83.80
71837;DHT22;59686;51.716;7.016;2022-11-09T08:52:39;14.30;82.90
71837;DHT22;59686;51.716;7.016;2022-11-09T08:55:05;14.40;82.80
71837;DHT22;59686;51.716;7.016;2022-11-09T08:57:31;14.40;82.80
71837;DHT22;59686;51.716;7.016;2022-11-09T08:59:57;14.40;82.80
71837;DHT22;59686;51.716;7.016;2022-11-09T09:02:35;14.40;82.90
71837;DHT22;59686;51.716;7.016;2022-11-09T09:05:00;14.40;82.80
71837;DHT22;59686;51.716;7.016;2022-11-09T09:07:26;14.40;82.80
71837;DHT22;59686;51.716;7.016;2022-11-09T09:09:52;14.50;82.80
71837;DHT22;59686;51.716;7.016;2022-11-09T09:12:17;14.50;82.90
71837;DHT22;59686;51.716;7.016;2022-11-09T09:14:43;14.50;82.80
71837;DHT22;59686;51.716;7.016;2022-11-09T09:17:09;14.40;82.80
71837;DHT22;59686;51.716;7.016;2022-11-09T09:19:35;14.40;82.70
71837;DHT22;59686;51.716;7.016;2022-11-09T09:22:00;14.40;82.70
71837;DHT22;59686;51.716;7.016;2022-11-09T09:24:27;14.30;82.70
71837;DHT22;59686;51.716;7.016;2022-11-09T09:26:53;14.50;82.70
71837;DHT22;59686;51.716;7.016;2022-11-09T09:29:19;14.50;82.70
71837;DHT22;59686;51.716;7.016;2022-11-09T09:31:44;14.50;82.60
71837;DHT22;59686;51.716;7.016;2022-11-09T09:34:10;14.50;82.70
71837;DHT22;59686;51.716;7.016;2022-11-09T09:36:36;14.40;82.70
71837;DHT22;59686;51.716;7.016;2022-11-09T09:39:02;14.50;82.70
71837;DHT22;59686;51.716;7.016;2022-11-09T09:41:38;14.50;82.80
71837;DHT22;59686;51.716;7.016;2022-11-09T09:44:31;14.50;82.60
71837;DHT22;59686;51.716;7.016;2022-11-09T09:50:02;14.50;82.40
71837;DHT22;59686;51.716;7.016;2022-11-09T09:52:39;14.40;82.10
71837;DHT22;59686;51.716;7.016;2022-11-09T09:55:30;14.50;81.90
71837;DHT22;59686;51.716;7.016;2022-11-09T09:58:29;14.50;81.90
71837;DHT22;59686;51.716;7.016;2022-11-09T10:01:01;14.50;81.60
71837;DHT22;59686;51.716;7.016;2022-11-09T10:03:28;14.50;81.40
71837;DHT22;59686;51.716;7.016;2022-11-09T10:08:46;14.50;81.40
71837;DHT22;59686;51.716;7.016;2022-11-09T10:14:23;14.50;81.20
71837;DHT22;59686;51.716;7.016;2022-11-09T10:17:17;14.50;81.10
71837;DHT22;59686;51.716;7.016;2022-11-09T10:25:23;14.40;81.00
71837;DHT22;59686;51.716;7.016;2022-11-09T10:28:03;14.60;81.00
71837;DHT22;59686;51.716;7.016;2022-11-09T10:30:32;14.60;80.80
71837;DHT22;59686;51.716;7.016;2022-11-09T10:33:14;14.50;80.70
71837;DHT22;59686;51.716;7.016;2022-11-09T10:38:43;14.50;80.90
71837;DHT22;59686;51.716;7.016;2022-11-09T10:43:51;14.60;80.80
71837;DHT22;59686;51.716;7.016;2022-11-09T10:46:17;14.60;80.80
71837;DHT22;59686;51.716;7.016;2022-11-09T10:48:43;14.60;80.80
71837;DHT22;59686;51.716;7.016;2022-11-09T10:51:37;14.60;80.70
71837;DHT22;59686;51.716;7.016;2022-11-09T10:56:49;14.60;80.50
71837;DHT22;59686;51.716;7.016;2022-11-09T10:59:36;14.70;80.50
71837;DHT22;59686;51.716;7.016;2022-11-09T11:04:49;14.60;80.20
71837;DHT22;59686;51.716;7.016;2022-11-09T11:07:18;14.60;80.00
71837;DHT22;59686;51.716;7.016;2022-11-09T11:09:44;14.60;80.60
71837;DHT22;59686;51.716;7.016;2022-11-09T11:12:15;14.60;79.90
71837;DHT22;59686;51.716;7.016;2022-11-09T11:14:42;14.60;79.70
71837;DHT22;59686;51.716;7.016;2022-11-09T11:17:23;14.60;79.70
71837;DHT22;59686;51.716;7.016;2022-11-09T11:19:49;14.70;79.40
71837;DHT22;59686;51.716;7.016;2022-11-09T11:22:23;14.70;79.50
71837;DHT22;59686;51.716;7.016;2022-11-09T11:25:00;14.70;79.40
71837;DHT22;59686;51.716;7.016;2022-11-09T11:27:49;14.70;79.30
71837;DHT22;59686;51.716;7.016;2022-11-09T11:30:33;14.70;79.40
71837;DHT22;59686;51.716;7.016;2022-11-09T11:33:20;14.70;80.10
71837;DHT22;59686;51.716;7.016;2022-11-09T11:35:57;14.70;79.30
71837;DHT22;59686;51.716;7.016;2022-11-09T11:38:28;14.70;79.40
71837;DHT22;59686;51.716;7.016;2022-11-09T11:52:09;14.70;78.80
71837;DHT22;59686;51.716;7.016;2022-11-09T11:55:31;14.60;79.00
71837;DHT22;59686;51.716;7.016;2022-11-09T12:14:48;14.70;78.50
71837;DHT22;59686;51.716;7.016;2022-11-09T12:33:57;14.70;77.60
71837;DHT22;59686;51.716;7.016;2022-11-09T12:39:06;14.70;77.50
71837;DHT22;59686;51.716;7.016;2022-11-09T12:41:37;14.70;77.30
71837;DHT22;59686;51.716;7.016;2022-11-09T12:46:56;14.70;77.30
71837;DHT22;59686;51.716;7.016;2022-11-09T12:49:38;14.70;77.10
71837;DHT22;59686;51.716;7.016;2022-11-09T12:52:07;14.70;77.00
71837;DHT22;59686;51.716;7.016;2022-11-09T12:54:35;14.70;77.10
71837;DHT22;59686;51.716;7.016;2022-11-09T12:57:06;14.70;77.10
71837;DHT22;59686;51.716;7.016;2022-11-09T12:59:44;14.70;77.20
71837;DHT22;59686;51.716;7.016;2022-11-09T13:05:06;14.80;76.90
71837;DHT22;59686;51.716;7.016;2022-11-09T13:07:47;14.80;76.70
71837;DHT22;59686;51.716;7.016;2022-11-09T13:15:28;14.80;76.50
71837;DHT22;59686;51.716;7.016;2022-11-09T13:18:02;14.80;76.60
71837;DHT22;59686;51.716;7.016;2022-11-09T13:23:02;14.80;76.80
71837;DHT22;59686;51.716;7.016;2022-11-09T13:30:53;14.80;76.50
71837;DHT22;59686;51.716;7.016;2022-11-09T13:33:21;14.80;76.60
71837;DHT22;59686;51.716;7.016;2022-11-09T13:38:20;14.80;76.40
71837;DHT22;59686;51.716;7.016;2022-11-09T13:40:55;14.80;76.30
71837;DHT22;59686;51.716;7.016;2022-11-09T13:43:31;14.80;76.30
71837;DHT22;59686;51.716;7.016;2022-11-09T13:46:01;14.80;76.10
71837;DHT22;59686;51.716;7.016;2022-11-09T13:51:11;14.80;76.20
71837;DHT22;59686;51.716;7.016;2022-11-09T13:56:33;14.90;76.20
71837;DHT22;59686;51.716;7.016;2022-11-09T14:04:20;14.80;76.10
71837;DHT22;59686;51.716;7.016;2022-11-09T14:06:46;14.80;76.20
71837;DHT22;59686;51.716;7.016;2022-11-09T14:09:40;14.80;76.20
71837;DHT22;59686;51.716;7.016;2022-11-09T14:12:19;14.80;76.20
71837;DHT22;59686;51.716;7.016;2022-11-09T14:15:00;14.80;76.30
71837;DHT22;59686;51.716;7.016;2022-11-09T14:17:40;14.80;76.50
71837;DHT22;59686;51.716;7.016;2022-11-09T14:20:32;14.80;76.30
71837;DHT22;59686;51.716;7.016;2022-11-09T14:22:59;14.80;76.30
71837;DHT22;59686;51.716;7.016;2022-11-09T14:25:25;14.80;76.40
71837;DHT22;59686;51.716;7.016;2022-11-09T14:27:54;14.80;76.20
71837;DHT22;59686;51.716;7.016;2022-11-09T14:30:29;14.80;76.40
71837;DHT22;59686;51.716;7.016;2022-11-09T14:32:56;14.80;76.10
71837;DHT22;59686;51.716;7.016;2022-11-09T14:37:54;14.80;76.40
71837;DHT22;59686;51.716;7.016;2022-11-09T14:40:28;14.80;76.40
71837;DHT22;59686;51.716;7.016;2022-11-09T14:43:04;14.70;76.30
71837;DHT22;59686;51.716;7.016;2022-11-09T14:45:31;14.80;76.50
71837;DHT22;59686;51.716;7.016;2022-11-09T14:47:58;14.80;76.50
71837;DHT22;59686;51.716;7.016;2022-11-09T14:50:32;14.70;76.60
71837;DHT22;59686;51.716;7.016;2022-11-09T14:53:00;14.70;76.50
71837;DHT22;59686;51.716;7.016;2022-11-09T14:55:27;14.70;76.50
71837;DHT22;59686;51.716;7.016;2022-11-09T14:57:54;14.70;76.60
71837;DHT22;59686;51.716;7.016;2022-11-09T15:00:31;14.70;76.60
71837;DHT22;59686;51.716;7.016;2022-11-09T15:02:58;14.70;76.70
71837;DHT22;59686;51.716;7.016;2022-11-09T15:05:37;14.70;76.70
71837;DHT22;59686;51.716;7.016;2022-11-09T15:08:09;14.70;76.70
71837;DHT22;59686;51.716;7.016;2022-11-09T15:10:39;14.70;76.70
71837;DHT22;59686;51.716;7.016;2022-11-09T15:13:05;14.70;76.70
71837;DHT22;59686;51.716;7.016;2022-11-09T15:15:32;14.70;76.80
71837;DHT22;59686;51.716;7.016;2022-11-09T15:18:00;14.70;76.60
71837;DHT22;59686;51.716;7.016;2022-11-09T15:20:30;14.70;76.60
71837;DHT22;59686;51.716;7.016;2022-11-09T15:23:05;14.70;76.50
71837;DHT22;59686;51.716;7.016;2022-11-09T15:35:58;14.80;76.60
71837;DHT22;59686;51.716;7.016;2022-11-09T15:38:43;14.80;76.80
71837;DHT22;59686;51.716;7.016;2022-11-09T15:41:21;14.80;76.70
71837;DHT22;59686;51.716;7.016;2022-11-09T15:43:47;14.80;76.80
71837;DHT22;59686;51.716;7.016;2022-11-09T15:46:16;14.80;76.80
71837;DHT22;59686;51.716;7.016;2022-11-09T15:48:42;14.80;76.60
71837;DHT22;59686;51.716;7.016;2022-11-09T15:51:10;14.80;76.60
71837;DHT22;59686;51.716;7.016;2022-11-09T15:53:36;14.70;76.60
71837;DHT22;59686;51.716;7.016;2022-11-09T15:56:08;14.80;76.70
71837;DHT22;59686;51.716;7.016;2022-11-09T15:58:35;14.80;76.60
71837;DHT22;59686;51.716;7.016;2022-11-09T16:01:00;14.80;76.80
71837;DHT22;59686;51.716;7.016;2022-11-09T16:03:26;14.80;76.70
71837;DHT22;59686;51.716;7.016;2022-11-09T16:05:51;14.80;76.70
71837;DHT22;59686;51.716;7.016;2022-11-09T16:08:17;14.80;76.80
71837;DHT22;59686;51.716;7.016;2022-11-09T16:10:43;14.80;76.80
71837;DHT22;59686;51.716;7.016;2022-11-09T16:13:09;14.80;76.90
71837;DHT22;59686;51.716;7.016;2022-11-09T16:15:36;14.80;76.80
71837;DHT22;59686;51.716;7.016;2022-11-09T16:18:03;14.80;76.70
71837;DHT22;59686;51.716;7.016;2022-11-09T16:20:29;14.80;76.70
71837;DHT22;59686;51.716;7.016;2022-11-09T16:23:04;14.80;76.90
71837;DHT22;59686;51.716;7.016;2022-11-09T16:25:29;14.80;76.70
71837;DHT22;59686;51.716;7.016;2022-11-09T16:27:55;14.80;76.90
71837;DHT22;59686;51.716;7.016;2022-11-09T16:30:23;14.80;76.80
71837;DHT22;59686;51.716;7.016;2022-11-09T16:32:48;14.80;76.90
71837;DHT22;59686;51.716;7.016;2022-11-09T16:35:16;14.80;76.90
71837;DHT22;59686;51.716;7.016;2022-11-09T16:37:42;14.80;76.80
71837;DHT22;59686;51.716;7.016;2022-11-09T16:40:12;14.80;76.90
71837;DHT22;59686;51.716;7.016;2022-11-09T16:42:43;14.80;76.90
71837;DHT22;59686;51.716;7.016;2022-11-09T16:45:12;14.70;76.80
71837;DHT22;59686;51.716;7.016;2022-11-09T16:47:43;14.80;77.00
71837;DHT22;59686;51.716;7.016;2022-11-09T16:50:10;14.80;77.00
71837;DHT22;59686;51.716;7.016;2022-11-09T16:52:36;14.80;76.90
71837;DHT22;59686;51.716;7.016;2022-11-09T16:55:02;14.80;76.90
71837;DHT22;59686;51.716;7.016;2022-11-09T16:57:27;14.80;77.00
71837;DHT22;59686;51.716;7.016;2022-11-09T17:00:05;14.80;77.10
71837;DHT22;59686;51.716;7.016;2022-11-09T17:02:31;14.80;77.00
71837;DHT22;59686;51.716;7.016;2022-11-09T17:04:57;14.80;77.20
71837;DHT22;59686;51.716;7.016;2022-11-09T17:07:23;14.80;77.10
71837;DHT22;59686;51.716;7.016;2022-11-09T17:09:58;14.80;77.20
71837;DHT22;59686;51.716;7.016;2022-11-09T17:12:24;14.80;77.20
71837;DHT22;59686;51.716;7.016;2022-11-09T17:14:49;14.80;77.20
71837;DHT22;59686;51.716;7.016;2022-11-09T17:17:15;14.80;77.30
71837;DHT22;59686;51.716;7.016;2022-11-09T17:19:41;14.80;77.30
71837;DHT22;59686;51.716;7.016;2022-11-09T17:22:06;14.80;77.30
71837;DHT22;59686;51.716;7.016;2022-11-09T17:24:32;14.80;77.30
71837;DHT22;59686;51.716;7.016;2022-11-09T17:26:58;14.80;77.30
71837;DHT22;59686;51.716;7.016;2022-11-09T17:29:24;14.80;77.40
71837;DHT22;59686;51.716;7.016;2022-11-09T17:31:50;14.80;77.30
71837;DHT22;59686;51.716;7.016;2022-11-09T17:34:15;14.80;77.40
71837;DHT22;59686;51.716;7.016;2022-11-09T17:36:41;14.70;77.40
71837;DHT22;59686;51.716;7.016;2022-11-09T17:39:14;14.80;77.40
71837;DHT22;59686;51.716;7.016;2022-11-09T17:41:40;14.70;77.50
71837;DHT22;59686;51.716;7.016;2022-11-09T17:44:05;14.70;77.60
71837;DHT22;59686;51.716;7.016;2022-11-09T17:46:31;14.70;77.60